Aeroporto :
LOGIN :

Iscrizione | Disclaimer

   EN    FR    IT 

 










Sommario :    VFR   VFR Marginale   IFR   IFR Intensivo   IFR Molto Intensivo
Visibilità : 
Base nubi : 
>= 8 km
>= 3000ft
5 / 8 km
1000 / 3000 ft
1500m / 5 km
500 / 1000 ft
800 / 1500m
200 / 500 ft
< 800m
< 200 ft
Simboli :   Temporali  Nebbia  Neve Forte  Precipitazioni Forti  Vento > 20 kt
SIGMETs :   Varie  Temporali  Ghiacco  Turbolenza  Onda orograficha  Ceneri Vulcaniche






- Altitudine del aeroporto : 796 ft
- Codice IATA : SYT


LFLN - Saint-Yan

ULTIMO METAR :
  • 190730Z AUTO 33004KT CAVOK M03/M04 Q1032 NOSIG

METARs OBSOLETI :
  • 190700Z AUTO 31004KT 290V360 CAVOK M01/M02 Q1032 TEMPO 3000 BR
  • 190630Z AUTO 31005KT CAVOK M02/M03 Q1032 TEMPO 3000 BR
  • 190600Z AUTO 33005KT CAVOK M03/M04 Q1031 TEMPO 3000 BR
  • 190530Z AUTO 31003KT CAVOK M02/M03 Q1031 TEMPO 3000 BR
  • 190500Z AUTO 31002KT 5000 BR NSC M02/M02 Q1031

TAF TAF LFLN
Valido dal 19 a 06 ore il 19 a 15 ore UTC


190500Z 1906/1915 02006KT 6000 NSC
PROB40
TEMPO 1906/1908 3000 BR
BECMG 1909/1911 BKN025



MetMap, La meteo Aeronautica in un colpo d'occhio ! - Copyright ORBIFLY Dicembre 2007 - Disclaimer

ORBIFLY MET'MAP TEAM :

Programmazione e sviluppo : Alexandra Zaïnal
Concezione : Baudouin d'Aumeries
Aiuto per la programmazione : Marc-Olivier Méhu
Supporto tecnico e logistico : Manuel Goepfert
Aiuto per la traduzione : Arnaldo La Scala

Contatto : metmap@orbifly.com




FONTI E CREDITI :

   NOAA